createdAt,value
2024-01-01T00:00:48.660Z,100.00
2024-01-01T00:03:18.986Z,100.00
2024-01-01T00:05:47.291Z,100.00
2024-01-01T00:08:15.815Z,100.00
2024-01-01T00:10:45.480Z,100.00
2024-01-01T00:13:15.457Z,100.00
2024-01-01T00:15:44.187Z,100.00
2024-01-01T00:18:14.796Z,100.00
2024-01-01T00:20:43.302Z,100.00
2024-01-01T00:23:11.789Z,100.00
2024-01-01T00:25:40.181Z,100.00
2024-01-01T00:28:08.804Z,100.00
2024-01-01T00:30:40.420Z,100.00
2024-01-01T00:33:08.757Z,100.00
2024-01-01T00:35:37.038Z,100.00
2024-01-01T00:38:05.889Z,100.00
2024-01-01T00:40:34.341Z,100.00
2024-01-01T00:43:02.619Z,100.00
2024-01-01T00:45:37.091Z,100.00
2024-01-01T00:48:12.866Z,100.00
2024-01-01T00:50:41.120Z,100.00
2024-01-01T00:53:09.448Z,100.00
2024-01-01T00:55:37.910Z,100.00
2024-01-01T00:58:08.074Z,100.00
2024-01-01T01:00:37.216Z,100.00
2024-01-01T01:03:06.234Z,100.00
2024-01-01T01:05:35.997Z,100.00
2024-01-01T01:08:04.860Z,100.00
2024-01-01T01:10:33.634Z,100.00
2024-01-01T01:13:02.053Z,100.00
2024-01-01T01:15:30.935Z,100.00
2024-01-01T01:17:59.626Z,100.00
2024-01-01T01:20:27.936Z,100.00
2024-01-01T01:22:57.621Z,100.00
2024-01-01T01:25:26.177Z,100.00
2024-01-01T01:27:54.390Z,100.00
2024-01-01T01:30:22.695Z,100.00
2024-01-01T01:32:51.310Z,100.00
2024-01-01T01:35:19.651Z,100.00
2024-01-01T01:37:47.880Z,100.00
2024-01-01T01:40:17.467Z,100.00
2024-01-01T01:42:48.021Z,100.00
2024-01-01T01:45:16.547Z,100.00
2024-01-01T01:47:45.015Z,100.00
2024-01-01T01:50:13.614Z,100.00
2024-01-01T01:52:42.202Z,100.00
2024-01-01T01:55:11.121Z,100.00
2024-01-01T01:57:41.739Z,100.00
2024-01-01T02:00:11.624Z,100.00
2024-01-01T02:02:43.945Z,100.00
2024-01-01T02:05:12.508Z,100.00
2024-01-01T02:07:42.471Z,100.00
2024-01-01T02:10:11.176Z,100.00
2024-01-01T02:12:41.283Z,100.00
2024-01-01T02:15:10.619Z,100.00
2024-01-01T02:17:38.938Z,100.00
2024-01-01T02:20:16.551Z,100.00
2024-01-01T02:22:48.823Z,100.00
2024-01-01T02:25:18.674Z,100.00
2024-01-01T02:27:47.127Z,100.00
2024-01-01T02:30:15.459Z,100.00
2024-01-01T02:32:43.843Z,100.00
2024-01-01T02:35:12.292Z,100.00
2024-01-01T02:37:40.818Z,100.00
2024-01-01T02:40:10.257Z,100.00
2024-01-01T02:42:39.937Z,100.00
2024-01-01T02:45:09.623Z,100.00
2024-01-01T02:47:39.042Z,100.00
2024-01-01T02:50:08.719Z,100.00
2024-01-01T02:52:37.179Z,100.00
2024-01-01T02:55:06.149Z,100.00
2024-01-01T02:57:34.394Z,100.00
2024-01-01T03:00:04.918Z,100.00
2024-01-01T03:02:33.268Z,100.00
2024-01-01T03:05:01.685Z,100.00
2024-01-01T03:07:29.984Z,100.00
2024-01-01T03:09:58.228Z,100.00
2024-01-01T03:12:26.606Z,100.00
2024-01-01T03:14:54.960Z,100.00
2024-01-01T03:17:24.863Z,100.00
2024-01-01T03:19:53.158Z,100.00
2024-01-01T03:22:21.513Z,100.00
2024-01-01T03:24:49.744Z,100.00
2024-01-01T03:27:18.275Z,100.00
2024-01-01T03:29:47.032Z,100.00
2024-01-01T03:32:15.459Z,100.00
2024-01-01T03:34:45.627Z,100.00
2024-01-01T03:37:13.909Z,100.00
2024-01-01T03:39:42.208Z,100.00
2024-01-01T03:42:10.462Z,100.00
2024-01-01T03:44:39.068Z,100.00
2024-01-01T03:47:07.525Z,100.00
2024-01-01T03:49:35.937Z,100.00
2024-01-01T03:52:05.748Z,100.00
2024-01-01T03:54:36.429Z,100.00
2024-01-01T03:57:05.234Z,100.00
2024-01-01T03:59:33.538Z,100.00
2024-01-01T04:02:01.814Z,100.00
2024-01-01T04:04:30.069Z,100.00
2024-01-01T04:06:58.938Z,100.00
2024-01-01T04:09:28.530Z,100.00
2024-01-01T04:11:56.818Z,100.00
2024-01-01T04:14:25.331Z,100.00
2024-01-01T04:16:53.728Z,100.00
2024-01-01T04:19:22.934Z,100.00
2024-01-01T04:21:51.161Z,100.00
2024-01-01T04:24:19.395Z,100.00
2024-01-01T04:26:49.005Z,100.00
2024-01-01T04:29:17.489Z,100.00
2024-01-01T04:31:47.408Z,100.00
2024-01-01T04:34:15.760Z,100.00
2024-01-01T04:36:45.419Z,100.00
2024-01-01T04:39:13.758Z,100.00
2024-01-01T04:41:42.309Z,100.00
2024-01-01T04:44:12.031Z,100.00
2024-01-01T04:46:40.352Z,100.00
2024-01-01T04:49:08.775Z,100.00
2024-01-01T04:51:37.177Z,100.00
2024-01-01T04:54:05.468Z,100.00
2024-01-01T04:56:33.718Z,100.00
2024-01-01T04:59:02.783Z,100.00
2024-01-01T05:01:32.393Z,100.00
2024-01-01T05:04:00.672Z,100.00
2024-01-01T05:06:29.040Z,100.00
2024-01-01T05:08:57.286Z,100.00
2024-01-01T05:11:25.597Z,100.00
2024-01-01T05:13:53.902Z,100.00
2024-01-01T05:16:22.168Z,100.00
2024-01-01T05:18:51.772Z,100.00
2024-01-01T05:21:20.079Z,100.00
2024-01-01T05:23:48.335Z,100.00
2024-01-01T05:26:16.713Z,100.00
2024-01-01T05:28:45.117Z,100.00
2024-01-01T05:31:13.450Z,100.00
2024-01-01T05:33:41.982Z,100.00
2024-01-01T05:36:15.094Z,100.00
2024-01-01T05:38:43.699Z,100.00
2024-01-01T05:41:12.847Z,100.00
2024-01-01T05:43:41.228Z,100.00
2024-01-01T05:46:09.534Z,100.00
2024-01-01T05:48:41.042Z,100.00
2024-01-01T05:51:10.820Z,100.00
2024-01-01T05:53:40.404Z,100.00
2024-01-01T05:56:09.167Z,100.00
2024-01-01T05:58:37.609Z,100.00
2024-01-01T06:01:06.140Z,100.00
2024-01-01T06:03:34.471Z,100.00
2024-01-01T06:06:03.184Z,100.00
2024-01-01T06:08:31.467Z,100.00
2024-01-01T06:11:01.107Z,100.00
2024-01-01T06:13:29.404Z,100.00
2024-01-01T06:15:57.915Z,100.00
2024-01-01T06:18:27.875Z,100.00
2024-01-01T06:20:56.300Z,100.00
2024-01-01T06:23:24.623Z,100.00
2024-01-01T06:25:54.095Z,100.00
2024-01-01T06:28:23.721Z,100.00
2024-01-01T06:30:52.461Z,100.00
2024-01-01T06:33:20.991Z,100.00
2024-01-01T06:35:49.497Z,99.90
2024-01-01T06:38:18.480Z,99.91
2024-01-01T06:40:46.785Z,99.59
2024-01-01T06:43:15.454Z,100.00
2024-01-01T06:45:45.133Z,99.44
2024-01-01T06:48:13.618Z,99.91
2024-01-01T06:50:41.962Z,99.81
2024-01-01T06:53:10.248Z,99.50
2024-01-01T06:55:38.537Z,99.63
2024-01-01T06:58:07.027Z,99.64
2024-01-01T07:00:35.486Z,99.47
2024-01-01T07:03:05.725Z,99.02
2024-01-01T07:05:35.411Z,98.81
2024-01-01T07:08:05.270Z,99.12
2024-01-01T07:10:33.728Z,98.84
2024-01-01T07:13:02.200Z,98.87
2024-01-01T07:15:30.440Z,99.01
2024-01-01T07:18:00.711Z,99.40
2024-01-01T07:20:30.542Z,99.01
2024-01-01T07:22:58.788Z,98.77
2024-01-01T07:25:27.027Z,98.52
2024-01-01T07:27:56.079Z,98.35
2024-01-01T07:30:24.329Z,97.59
2024-01-01T07:32:52.583Z,97.16
2024-01-01T07:35:21.005Z,96.98
2024-01-01T07:37:51.990Z,97.12
2024-01-01T07:40:20.393Z,98.27
2024-01-01T07:42:48.722Z,98.63
2024-01-01T07:45:17.098Z,99.18
2024-01-01T07:47:45.511Z,99.32
2024-01-01T07:50:13.875Z,99.55
2024-01-01T07:52:42.153Z,100.00
2024-01-01T07:55:13.322Z,99.81
2024-01-01T07:57:41.749Z,99.88
2024-01-01T08:00:13.034Z,100.00
2024-01-01T08:02:41.283Z,100.00
2024-01-01T08:05:09.801Z,100.00
2024-01-01T08:07:38.190Z,100.00
2024-01-01T08:10:07.525Z,100.00
2024-01-01T08:12:37.091Z,100.00
2024-01-01T08:15:06.309Z,99.90
2024-01-01T08:17:34.635Z,100.00
2024-01-01T08:20:03.089Z,99.97
2024-01-01T08:22:31.496Z,99.88
2024-01-01T08:24:59.871Z,99.91
2024-01-01T08:27:28.105Z,99.91
2024-01-01T08:29:57.691Z,99.46
2024-01-01T08:32:25.999Z,99.14
2024-01-01T08:34:54.312Z,98.59
2024-01-01T08:37:22.618Z,98.48
2024-01-01T08:39:51.168Z,97.51
2024-01-01T08:42:19.478Z,96.93
2024-01-01T08:44:47.795Z,96.59
2024-01-01T08:47:17.742Z,96.76
2024-01-01T08:49:46.061Z,96.53
2024-01-01T08:52:14.294Z,96.16
2024-01-01T08:54:42.537Z,95.85
2024-01-01T08:57:10.761Z,95.23
2024-01-01T08:59:40.655Z,94.91
2024-01-01T09:02:09.201Z,94.47
2024-01-01T09:04:38.896Z,94.12
2024-01-01T09:07:07.196Z,93.79
2024-01-01T09:09:36.383Z,93.64
2024-01-01T09:12:04.981Z,93.31
2024-01-01T09:14:33.317Z,93.35
2024-01-01T09:17:01.698Z,92.97
2024-01-01T09:19:30.001Z,92.61
2024-01-01T09:21:59.601Z,92.51
2024-01-01T09:24:27.808Z,92.33
2024-01-01T09:26:56.070Z,91.58
2024-01-01T09:29:24.597Z,91.05
2024-01-01T09:31:53.579Z,90.78
2024-01-01T09:34:21.821Z,90.83
2024-01-01T09:36:57.606Z,90.68
2024-01-01T09:39:33.039Z,90.82
2024-01-01T09:42:03.494Z,90.41
2024-01-01T09:44:31.845Z,89.59
2024-01-01T09:47:00.255Z,88.72
2024-01-01T09:49:28.730Z,88.22
2024-01-01T09:51:58.505Z,88.09
2024-01-01T09:54:26.788Z,87.13
2024-01-01T09:56:56.428Z,87.04
2024-01-01T09:59:38.645Z,86.55
2024-01-01T10:02:08.910Z,86.16
2024-01-01T10:04:38.052Z,85.23
2024-01-01T10:07:06.944Z,83.87
2024-01-01T10:09:39.377Z,83.27
2024-01-01T10:12:11.213Z,83.09
2024-01-01T10:14:47.763Z,83.81
2024-01-01T10:17:18.888Z,83.87
2024-01-01T10:19:52.391Z,83.90
2024-01-01T10:22:22.213Z,83.15
2024-01-01T10:24:53.493Z,82.94
2024-01-01T10:27:23.817Z,82.97
2024-01-01T10:29:52.627Z,83.52
2024-01-01T10:32:21.347Z,83.12
2024-01-01T10:34:50.136Z,82.84
2024-01-01T10:37:20.169Z,83.11
2024-01-01T10:39:49.648Z,83.78
2024-01-01T10:42:18.652Z,83.20
2024-01-01T10:44:48.479Z,82.53
2024-01-01T10:47:21.023Z,82.84
2024-01-01T10:49:54.023Z,82.68
2024-01-01T10:52:37.949Z,82.60
2024-01-01T10:55:35.992Z,82.11
2024-01-01T10:58:20.122Z,82.97
2024-01-01T11:01:00.795Z,82.73
2024-01-01T11:03:29.398Z,82.73
2024-01-01T11:05:57.643Z,82.81
2024-01-01T11:08:29.542Z,83.07
2024-01-01T11:10:57.931Z,82.76
2024-01-01T11:13:57.831Z,82.49
2024-01-01T11:16:27.652Z,83.77
2024-01-01T11:18:56.159Z,85.46
2024-01-01T11:21:29.151Z,87.34
2024-01-01T11:24:14.317Z,88.98
2024-01-01T11:26:46.021Z,89.85
2024-01-01T11:29:28.701Z,90.14
2024-01-01T11:32:05.646Z,90.59
2024-01-01T11:34:43.741Z,91.01
2024-01-01T11:37:22.135Z,90.97
2024-01-01T11:39:59.106Z,91.15
2024-01-01T11:42:27.962Z,90.72
2024-01-01T11:45:09.909Z,90.79
2024-01-01T11:47:40.223Z,90.53
2024-01-01T11:50:10.578Z,90.79
2024-01-01T11:52:40.023Z,91.18
2024-01-01T11:55:08.985Z,91.66
2024-01-01T11:57:37.369Z,92.21
2024-01-01T12:00:07.037Z,93.53
2024-01-01T12:02:39.812Z,95.57
2024-01-01T12:05:10.145Z,97.28
2024-01-01T12:07:38.726Z,98.43
2024-01-01T12:10:09.979Z,99.23
2024-01-01T12:12:39.484Z,99.94
2024-01-01T12:15:12.962Z,100.00
2024-01-01T12:17:44.540Z,100.00
2024-01-01T12:20:16.125Z,100.00
2024-01-01T12:22:45.168Z,100.00
2024-01-01T12:25:17.813Z,100.00
2024-01-01T12:28:01.288Z,100.00
2024-01-01T12:30:29.814Z,100.00
2024-01-01T12:33:00.164Z,100.00
2024-01-01T12:35:29.128Z,100.00
2024-01-01T12:37:58.094Z,100.00
2024-01-01T12:40:29.800Z,100.00
2024-01-01T12:42:58.338Z,100.00
2024-01-01T12:45:27.263Z,100.00
2024-01-01T12:47:56.115Z,100.00
2024-01-01T12:50:25.789Z,100.00
2024-01-01T12:52:54.218Z,100.00
2024-01-01T12:55:22.556Z,100.00
2024-01-01T12:57:50.856Z,100.00
2024-01-01T13:00:19.341Z,100.00
2024-01-01T13:02:47.627Z,100.00
2024-01-01T13:05:16.009Z,100.00
2024-01-01T13:07:45.673Z,100.00
2024-01-01T13:10:14.151Z,100.00
2024-01-01T13:12:42.399Z,100.00
2024-01-01T13:15:10.915Z,100.00
2024-01-01T13:17:40.634Z,100.00
2024-01-01T13:20:11.188Z,100.00
2024-01-01T13:22:39.514Z,100.00
2024-01-01T13:25:09.477Z,100.00
2024-01-01T13:27:37.780Z,100.00
2024-01-01T13:30:07.233Z,100.00
2024-01-01T13:32:35.608Z,100.00
2024-01-01T13:35:04.026Z,100.00
2024-01-01T13:37:32.308Z,100.00
2024-01-01T13:40:01.452Z,100.00
2024-01-01T13:42:31.224Z,100.00
2024-01-01T13:44:59.574Z,100.00
2024-01-01T13:47:28.493Z,100.00
2024-01-01T13:49:56.809Z,100.00
2024-01-01T13:52:25.859Z,100.00
2024-01-01T13:54:54.113Z,100.00
2024-01-01T13:57:22.339Z,100.00
2024-01-01T13:59:51.891Z,100.00
2024-01-01T14:02:20.449Z,100.00
2024-01-01T14:04:48.771Z,100.00
2024-01-01T14:07:17.006Z,100.00
2024-01-01T14:09:45.218Z,100.00
2024-01-01T14:12:13.464Z,100.00
2024-01-01T14:14:44.762Z,100.00
2024-01-01T14:17:14.357Z,100.00
2024-01-01T14:19:42.644Z,100.00
2024-01-01T14:22:11.187Z,100.00
2024-01-01T14:24:39.478Z,100.00
2024-01-01T14:27:10.915Z,100.00
2024-01-01T14:29:39.384Z,100.00
2024-01-01T14:32:07.994Z,100.00
2024-01-01T14:34:38.991Z,100.00
2024-01-01T14:37:08.306Z,100.00
2024-01-01T14:39:37.069Z,100.00
2024-01-01T14:42:05.968Z,100.00
2024-01-01T14:44:34.636Z,100.00
2024-01-01T14:47:04.757Z,100.00
2024-01-01T14:49:33.087Z,100.00
2024-01-01T14:52:03.332Z,100.00
2024-01-01T14:54:31.708Z,100.00
2024-01-01T14:56:59.992Z,100.00
2024-01-01T14:59:28.335Z,100.00
2024-01-01T15:01:59.016Z,100.00
2024-01-01T15:04:27.338Z,100.00
2024-01-01T15:06:55.574Z,100.00
2024-01-01T15:09:25.159Z,100.00
2024-01-01T15:11:53.409Z,100.00
2024-01-01T15:14:21.772Z,100.00
2024-01-01T15:16:50.163Z,100.00
2024-01-01T15:19:19.665Z,100.00
2024-01-01T15:21:47.957Z,100.00
2024-01-01T15:24:17.328Z,100.00
2024-01-01T15:26:46.940Z,100.00
2024-01-01T15:29:15.227Z,100.00
2024-01-01T15:31:43.590Z,100.00
2024-01-01T15:34:11.855Z,100.00
2024-01-01T15:36:41.727Z,100.00
2024-01-01T15:39:13.639Z,100.00
2024-01-01T15:41:42.125Z,100.00
2024-01-01T15:44:11.790Z,100.00
2024-01-01T15:46:40.232Z,100.00
2024-01-01T15:49:08.578Z,100.00
2024-01-01T15:51:39.762Z,100.00
2024-01-01T15:54:08.737Z,100.00
2024-01-01T15:56:41.471Z,100.00
2024-01-01T15:59:11.246Z,100.00
2024-01-01T16:01:39.567Z,100.00
2024-01-01T16:04:07.968Z,100.00
2024-01-01T16:06:36.250Z,100.00
2024-01-01T16:09:04.858Z,100.00
2024-01-01T16:11:33.213Z,100.00
2024-01-01T16:14:01.859Z,100.00
2024-01-01T16:16:34.606Z,100.00
2024-01-01T16:19:05.073Z,100.00
2024-01-01T16:21:37.057Z,100.00
2024-01-01T16:24:05.894Z,100.00
2024-01-01T16:26:38.195Z,100.00
2024-01-01T16:29:06.558Z,100.00
2024-01-01T16:31:36.201Z,100.00
2024-01-01T16:34:05.462Z,100.00
2024-01-01T16:36:33.783Z,100.00
2024-01-01T16:39:04.112Z,100.00
2024-01-01T16:41:32.461Z,99.16
2024-01-01T16:44:00.768Z,99.47
2024-01-01T16:46:29.068Z,98.46
2024-01-01T16:48:58.920Z,97.93
2024-01-01T16:51:27.293Z,98.03
2024-01-01T16:53:55.599Z,97.83
2024-01-01T16:56:26.529Z,97.48
2024-01-01T16:58:55.087Z,97.63
2024-01-01T17:01:25.796Z,97.84
2024-01-01T17:03:54.142Z,97.98
2024-01-01T17:06:24.178Z,98.05
2024-01-01T17:08:52.456Z,97.89
2024-01-01T17:11:20.790Z,97.97
2024-01-01T17:13:49.079Z,98.09
2024-01-01T17:16:17.612Z,98.03
2024-01-01T17:18:46.251Z,97.38
2024-01-01T17:21:19.151Z,96.91
2024-01-01T17:23:50.607Z,97.04
2024-01-01T17:26:19.027Z,96.88
2024-01-01T17:28:49.467Z,96.63
2024-01-01T17:31:18.178Z,97.23
2024-01-01T17:33:46.727Z,96.91
2024-01-01T17:36:17.302Z,96.97
2024-01-01T17:38:45.948Z,96.78
2024-01-01T17:41:15.588Z,96.60
2024-01-01T17:43:46.160Z,96.61
2024-01-01T17:46:15.073Z,96.98
2024-01-01T17:48:43.434Z,96.56
2024-01-01T17:51:11.796Z,96.10
2024-01-01T17:53:40.261Z,95.81
2024-01-01T17:56:12.358Z,95.57
2024-01-01T17:58:41.953Z,95.22
2024-01-01T18:01:10.652Z,95.00
2024-01-01T18:03:39.139Z,94.94
2024-01-01T18:06:07.601Z,94.61
2024-01-01T18:08:36.400Z,94.65
2024-01-01T18:11:05.173Z,94.56
2024-01-01T18:13:33.561Z,94.41
2024-01-01T18:16:05.218Z,94.29
2024-01-01T18:18:34.629Z,94.35
2024-01-01T18:21:02.998Z,94.55
2024-01-01T18:23:31.246Z,94.56
2024-01-01T18:25:59.542Z,94.77
2024-01-01T18:28:27.806Z,94.69
2024-01-01T18:30:56.258Z,95.02
2024-01-01T18:33:25.909Z,95.21
2024-01-01T18:36:00.048Z,95.55
2024-01-01T18:38:28.546Z,96.05
2024-01-01T18:40:56.808Z,96.40
2024-01-01T18:43:25.128Z,96.59
2024-01-01T18:45:53.408Z,96.90
2024-01-01T18:48:22.035Z,96.82
2024-01-01T18:50:53.775Z,97.71
2024-01-01T18:53:22.719Z,98.34
2024-01-01T18:55:51.186Z,99.29
2024-01-01T18:58:19.730Z,99.69
2024-01-01T19:00:47.997Z,100.00
2024-01-01T19:03:16.550Z,100.00
2024-01-01T19:05:44.871Z,100.00
2024-01-01T19:08:14.541Z,100.00
2024-01-01T19:10:42.783Z,100.00
2024-01-01T19:13:11.055Z,100.00
2024-01-01T19:15:39.847Z,100.00
2024-01-01T19:18:10.730Z,100.00
2024-01-01T19:20:39.648Z,100.00
2024-01-01T19:23:08.167Z,100.00
2024-01-01T19:25:37.979Z,100.00
2024-01-01T19:28:07.045Z,100.00
2024-01-01T19:30:35.474Z,100.00
2024-01-01T19:33:05.284Z,100.00
2024-01-01T19:35:35.587Z,100.00
2024-01-01T19:38:03.986Z,100.00
2024-01-01T19:40:32.286Z,100.00
2024-01-01T19:43:01.881Z,100.00
2024-01-01T19:45:30.114Z,100.00
2024-01-01T19:47:58.654Z,100.00
2024-01-01T19:50:27.037Z,100.00
2024-01-01T19:52:55.545Z,100.00
2024-01-01T19:55:24.087Z,100.00
2024-01-01T19:57:52.519Z,100.00
2024-01-01T20:00:22.206Z,100.00
2024-01-01T20:02:50.442Z,100.00
2024-01-01T20:05:18.711Z,100.00
2024-01-01T20:07:47.014Z,100.00
2024-01-01T20:10:15.337Z,100.00
2024-01-01T20:12:43.568Z,100.00
2024-01-01T20:15:12.389Z,100.00
2024-01-01T20:17:42.065Z,100.00
2024-01-01T20:20:11.610Z,100.00
2024-01-01T20:22:41.616Z,100.00
2024-01-01T20:25:09.977Z,100.00
2024-01-01T20:27:38.260Z,100.00
2024-01-01T20:30:09.181Z,100.00
2024-01-01T20:32:37.562Z,100.00
2024-01-01T20:35:07.870Z,100.00
2024-01-01T20:37:37.120Z,100.00
2024-01-01T20:40:06.662Z,100.00
2024-01-01T20:42:36.328Z,100.00
2024-01-01T20:45:05.445Z,100.00
2024-01-01T20:47:34.087Z,100.00
2024-01-01T20:50:02.516Z,100.00
2024-01-01T20:52:39.899Z,100.00
2024-01-01T20:55:11.132Z,100.00
2024-01-01T20:57:39.674Z,100.00
2024-01-01T21:00:11.093Z,100.00
2024-01-01T21:02:41.731Z,100.00
2024-01-01T21:05:10.552Z,100.00
2024-01-01T21:07:41.867Z,100.00
2024-01-01T21:10:11.154Z,100.00
2024-01-01T21:12:40.925Z,100.00
2024-01-01T21:15:10.129Z,100.00
2024-01-01T21:17:38.714Z,100.00
2024-01-01T21:20:07.995Z,100.00
2024-01-01T21:22:36.341Z,100.00
2024-01-01T21:25:06.645Z,100.00
2024-01-01T21:27:37.087Z,100.00
2024-01-01T21:30:06.347Z,100.00
2024-01-01T21:32:34.863Z,100.00
2024-01-01T21:35:04.439Z,100.00
2024-01-01T21:37:32.803Z,100.00
2024-01-01T21:40:01.131Z,100.00
2024-01-01T21:42:30.798Z,100.00
2024-01-01T21:44:59.069Z,100.00
2024-01-01T21:47:27.445Z,100.00
2024-01-01T21:49:55.820Z,100.00
2024-01-01T21:52:24.081Z,100.00
2024-01-01T21:54:54.582Z,100.00
2024-01-01T21:57:22.876Z,100.00
2024-01-01T21:59:52.528Z,100.00
2024-01-01T22:02:21.008Z,100.00
2024-01-01T22:04:49.547Z,100.00
2024-01-01T22:07:17.971Z,100.00
2024-01-01T22:09:46.274Z,100.00
2024-01-01T22:12:15.087Z,100.00
2024-01-01T22:14:44.070Z,100.00
2024-01-01T22:17:13.672Z,100.00
2024-01-01T22:19:42.827Z,100.00
2024-01-01T22:22:11.089Z,100.00
2024-01-01T22:24:39.403Z,100.00
2024-01-01T22:27:07.645Z,100.00
2024-01-01T22:29:36.778Z,100.00
2024-01-01T22:32:05.715Z,100.00
2024-01-01T22:34:36.099Z,100.00
2024-01-01T22:37:04.872Z,100.00
2024-01-01T22:39:33.125Z,100.00
2024-01-01T22:42:01.419Z,100.00
2024-01-01T22:44:30.028Z,100.00
2024-01-01T22:46:58.360Z,100.00
2024-01-01T22:49:26.779Z,100.00
2024-01-01T22:51:56.596Z,100.00
2024-01-01T22:54:24.845Z,100.00
2024-01-01T22:56:53.221Z,100.00
2024-01-01T22:59:21.574Z,100.00
2024-01-01T23:01:50.033Z,100.00
2024-01-01T23:04:18.554Z,100.00
2024-01-01T23:06:46.799Z,100.00
2024-01-01T23:09:16.426Z,100.00
2024-01-01T23:11:45.086Z,100.00
2024-01-01T23:14:14.794Z,100.00
2024-01-01T23:16:43.101Z,100.00
2024-01-01T23:19:11.364Z,100.00
2024-01-01T23:21:44.121Z,100.00
2024-01-01T23:24:12.466Z,100.00
2024-01-01T23:26:43.728Z,100.00
2024-01-01T23:29:15.333Z,100.00
2024-01-01T23:31:43.800Z,100.00
2024-01-01T23:34:15.071Z,100.00
2024-01-01T23:36:44.331Z,100.00
2024-01-01T23:39:12.702Z,100.00
2024-01-01T23:41:42.278Z,100.00
2024-01-01T23:44:10.555Z,100.00
2024-01-01T23:46:38.783Z,100.00
2024-01-01T23:49:07.102Z,100.00
2024-01-01T23:51:35.376Z,100.00
2024-01-01T23:54:03.719Z,100.00
2024-01-01T23:56:32.047Z,100.00
2024-01-01T23:59:01.756Z,100.00
